createdAt,value
2018-12-17T00:00:52.826Z,95.05
2018-12-17T00:01:52.960Z,94.97
2018-12-17T00:02:52.780Z,94.88
2018-12-17T00:03:52.912Z,94.66
2018-12-17T00:04:53.095Z,94.89
2018-12-17T00:05:52.899Z,95.19
2018-12-17T00:06:52.784Z,94.96
2018-12-17T00:07:52.935Z,94.89
2018-12-17T00:08:52.960Z,95.12
2018-12-17T00:09:52.790Z,94.87
2018-12-17T00:10:53.141Z,94.93
2018-12-17T00:11:53.020Z,95.1
2018-12-17T00:12:52.919Z,94.8
2018-12-17T00:13:52.921Z,94.73
2018-12-17T00:14:52.965Z,95.17
2018-12-17T00:15:52.941Z,95.03
2018-12-17T00:16:53.138Z,95.09
2018-12-17T00:17:52.767Z,95.21
2018-12-17T00:18:52.876Z,95.1
2018-12-17T00:19:53.030Z,95.17
2018-12-17T00:20:52.839Z,95.19
2018-12-17T00:21:53.134Z,95.55
2018-12-17T00:22:52.820Z,95.45
2018-12-17T00:23:52.886Z,95.35
2018-12-17T00:24:52.770Z,95.49
2018-12-17T00:25:52.778Z,95.48
2018-12-17T00:26:52.859Z,95.52
2018-12-17T00:27:52.904Z,95.23
2018-12-17T00:28:52.993Z,95.14
2018-12-17T00:29:52.765Z,95.23
2018-12-17T00:30:52.935Z,94.93
2018-12-17T00:31:52.916Z,95.17
2018-12-17T00:32:53.054Z,95.39
2018-12-17T00:33:52.921Z,95.33
2018-12-17T00:34:52.826Z,95.44
2018-12-17T00:35:52.887Z,95.18
2018-12-17T00:36:52.906Z,95.07
2018-12-17T00:37:53.050Z,95.05
2018-12-17T00:38:52.919Z,94.87
2018-12-17T00:39:53.130Z,94.89
2018-12-17T00:40:52.799Z,95.03
2018-12-17T00:41:52.962Z,94.97
2018-12-17T00:42:52.905Z,94.72
2018-12-17T00:43:53.581Z,95.1
2018-12-17T00:44:52.725Z,94.84
2018-12-17T00:45:53.022Z,94.75
2018-12-17T00:46:52.738Z,94.75
2018-12-17T00:47:52.902Z,94.87
2018-12-17T00:48:52.928Z,94.68
2018-12-17T00:49:52.899Z,94.83
2018-12-17T00:50:52.742Z,94.73
2018-12-17T00:51:53.081Z,94.31
2018-12-17T00:52:52.998Z,94.74
2018-12-17T00:53:52.745Z,94.41
2018-12-17T00:54:53.004Z,94.69
2018-12-17T00:55:52.714Z,94.5
2018-12-17T00:56:52.918Z,94.66
2018-12-17T00:57:52.720Z,94.6
2018-12-17T00:58:53.033Z,94.8
2018-12-17T00:59:52.723Z,94.8
2018-12-17T01:00:52.787Z,94.36
2018-12-17T01:01:53.155Z,94.6
2018-12-17T01:02:52.958Z,94.72
2018-12-17T01:03:52.767Z,94.47
2018-12-17T01:04:52.734Z,94.3
2018-12-17T01:05:52.720Z,94.38
2018-12-17T01:06:53.189Z,94.51
2018-12-17T01:07:52.735Z,94.38
2018-12-17T01:08:53.001Z,94.49
2018-12-17T01:09:52.781Z,94.23
2018-12-17T01:10:53.132Z,94.37
2018-12-17T01:11:52.930Z,94.62
2018-12-17T01:12:52.714Z,94.63
2018-12-17T01:13:52.680Z,95.18
2018-12-17T01:14:52.835Z,94.96
2018-12-17T01:15:52.898Z,94.87
2018-12-17T01:16:52.889Z,94.76
2018-12-17T01:17:52.688Z,94.83
2018-12-17T01:18:52.783Z,94.66
2018-12-17T01:19:52.896Z,94.77
2018-12-17T01:20:52.734Z,94.7
2018-12-17T01:21:52.700Z,94.73
2018-12-17T01:22:52.922Z,94.72
2018-12-17T01:23:52.677Z,94.59
2018-12-17T01:24:52.682Z,94.61
2018-12-17T01:25:53.070Z,94.65
2018-12-17T01:26:52.753Z,94.45
2018-12-17T01:27:52.654Z,94.41
2018-12-17T01:28:52.837Z,94.51
2018-12-17T01:29:52.950Z,94.48
2018-12-17T01:30:52.796Z,94.19
2018-12-17T01:31:52.683Z,94.47
2018-12-17T01:32:52.953Z,94.55
2018-12-17T01:33:52.697Z,94.52
2018-12-17T01:34:52.672Z,94.59
2018-12-17T01:35:52.684Z,94.56
2018-12-17T01:36:52.914Z,94.45
2018-12-17T01:37:52.726Z,94.49
2018-12-17T01:38:52.687Z,94.73
2018-12-17T01:39:52.665Z,94.42
2018-12-17T01:40:52.678Z,94.7
2018-12-17T01:41:52.679Z,94.73
2018-12-17T01:42:52.693Z,94.7
2018-12-17T01:43:52.738Z,94.69
2018-12-17T01:44:52.673Z,95.01
2018-12-17T01:45:52.650Z,95.03
2018-12-17T01:46:52.709Z,94.84
2018-12-17T01:47:52.673Z,94.84
2018-12-17T01:48:52.695Z,94.71
2018-12-17T01:49:52.660Z,94.73
2018-12-17T01:50:53.122Z,94.59
2018-12-17T01:51:52.907Z,94.8
2018-12-17T01:52:52.697Z,94.68
2018-12-17T01:53:53.477Z,94.86
2018-12-17T01:54:52.862Z,94.81
2018-12-17T01:55:52.875Z,94.81
2018-12-17T01:56:52.949Z,94.88
2018-12-17T01:57:52.471Z,94.71
2018-12-17T01:58:52.696Z,94.7
2018-12-17T01:59:52.696Z,94.65
2018-12-17T02:00:53.934Z,95.2
2018-12-17T02:01:52.891Z,94.84
2018-12-17T02:02:52.678Z,95.04
2018-12-17T02:03:52.856Z,95.08
2018-12-17T02:04:52.769Z,95.04
2018-12-17T02:05:53.082Z,94.85
2018-12-17T02:06:52.944Z,94.94
2018-12-17T02:07:52.645Z,94.86
2018-12-17T02:08:52.684Z,94.77
2018-12-17T02:09:52.706Z,94.93
2018-12-17T02:10:52.752Z,94.89
2018-12-17T02:11:52.648Z,94.8
2018-12-17T02:12:52.656Z,94.71
2018-12-17T02:13:52.663Z,94.61
2018-12-17T02:14:52.640Z,94.59
2018-12-17T02:15:52.759Z,94.57
2018-12-17T02:16:52.689Z,94.96
2018-12-17T02:17:53.136Z,94.61
2018-12-17T02:18:52.811Z,94.61
2018-12-17T02:19:52.664Z,94.5
2018-12-17T02:20:52.854Z,94.29
2018-12-17T02:21:52.583Z,94.45
2018-12-17T02:22:53.419Z,94.2
2018-12-17T02:23:52.619Z,94.34
2018-12-17T02:24:52.711Z,94.47
2018-12-17T02:25:52.805Z,94.32
2018-12-17T02:26:52.789Z,94.18
2018-12-17T02:27:53.033Z,94.24
2018-12-17T02:28:52.829Z,94.24
2018-12-17T02:29:52.957Z,94.08
2018-12-17T02:30:52.732Z,94.15
2018-12-17T02:31:52.593Z,94.2
2018-12-17T02:32:52.610Z,94.3
2018-12-17T02:33:52.957Z,94.29
2018-12-17T02:34:53.065Z,94.07
2018-12-17T02:35:52.722Z,94.18
2018-12-17T02:36:52.706Z,94.13
2018-12-17T02:37:52.999Z,94.26
2018-12-17T02:38:52.671Z,94.17
2018-12-17T02:39:52.555Z,94.03
2018-12-17T02:40:53.064Z,94.23
2018-12-17T02:41:52.828Z,94.18
2018-12-17T02:42:52.835Z,94.15
2018-12-17T02:43:52.977Z,94.39
2018-12-17T02:44:52.553Z,94.34
2018-12-17T02:45:52.741Z,94.17
2018-12-17T02:46:52.622Z,94.72
2018-12-17T02:47:52.786Z,94.61
2018-12-17T02:48:52.667Z,94.61
2018-12-17T02:49:52.938Z,94.45
2018-12-17T02:50:52.694Z,94.32
2018-12-17T02:51:52.560Z,94.37
2018-12-17T02:52:52.575Z,94.95
2018-12-17T02:53:52.742Z,94.86
2018-12-17T02:54:52.896Z,94.58
2018-12-17T02:55:52.647Z,94.32
2018-12-17T02:56:52.561Z,94.89
2018-12-17T02:57:52.588Z,94.74
2018-12-17T02:58:52.880Z,94.73
2018-12-17T02:59:52.540Z,94.52
2018-12-17T03:00:52.755Z,94.9
2018-12-17T03:01:52.543Z,95.09
2018-12-17T03:02:52.878Z,95.29
2018-12-17T03:03:52.950Z,95.14
2018-12-17T03:04:52.673Z,94.87
2018-12-17T03:05:52.611Z,94.82
2018-12-17T03:06:52.682Z,94.68
2018-12-17T03:07:52.729Z,94.53
2018-12-17T03:08:52.737Z,94.62
2018-12-17T03:09:52.538Z,94.55
2018-12-17T03:10:52.650Z,94.46
2018-12-17T03:11:52.814Z,95.12
2018-12-17T03:12:52.513Z,94.74
2018-12-17T03:13:52.515Z,94.67
2018-12-17T03:14:52.905Z,94.8
2018-12-17T03:15:52.514Z,94.6
2018-12-17T03:16:52.608Z,94.67
2018-12-17T03:17:52.770Z,95.09
2018-12-17T03:18:52.874Z,95.01
2018-12-17T03:19:52.496Z,94.68
2018-12-17T03:20:52.793Z,94.79
2018-12-17T03:21:52.502Z,94.53
2018-12-17T03:22:52.574Z,95.05
2018-12-17T03:23:52.715Z,94.77
2018-12-17T03:24:52.619Z,94.68
2018-12-17T03:25:52.526Z,94.91
2018-12-17T03:26:52.559Z,94.71
2018-12-17T03:27:52.546Z,94.89
2018-12-17T03:28:52.555Z,94.94
2018-12-17T03:29:52.499Z,94.85
2018-12-17T03:30:53.026Z,94.51
2018-12-17T03:31:52.513Z,94.5
2018-12-17T03:32:52.664Z,94.45
2018-12-17T03:33:52.499Z,94.49
2018-12-17T03:34:52.740Z,94.71
2018-12-17T03:35:52.581Z,94.67
2018-12-17T03:36:52.481Z,94.7
2018-12-17T03:37:52.883Z,94.44
2018-12-17T03:38:52.691Z,94.68
2018-12-17T03:39:52.549Z,94.5
2018-12-17T03:40:52.725Z,94.61
2018-12-17T03:41:52.726Z,94.31
2018-12-17T03:42:52.590Z,94.52
2018-12-17T03:43:52.593Z,94.19
2018-12-17T03:44:52.576Z,94.16
2018-12-17T03:45:53.028Z,94.31
2018-12-17T03:46:52.869Z,94.46
2018-12-17T03:47:52.479Z,94.56
2018-12-17T03:48:52.657Z,94.53
2018-12-17T03:49:52.591Z,94.19
2018-12-17T03:50:52.584Z,94.27
2018-12-17T03:51:52.881Z,94.64
2018-12-17T03:52:52.579Z,94.41
2018-12-17T03:53:52.518Z,94.39
2018-12-17T03:54:53.080Z,94.32
2018-12-17T03:55:52.534Z,94.56
2018-12-17T03:56:52.813Z,94.24
2018-12-17T03:57:52.487Z,94.37
2018-12-17T03:58:59.025Z,94.35
2018-12-17T03:59:52.460Z,94.29
2018-12-17T04:00:52.499Z,94.42
2018-12-17T04:01:52.615Z,94.47
2018-12-17T04:02:52.652Z,94.48
2018-12-17T04:03:52.489Z,94.21
2018-12-17T04:04:52.511Z,94.29
2018-12-17T04:05:52.468Z,94.57
2018-12-17T04:06:52.583Z,94.43
2018-12-17T04:07:53.303Z,94.5
2018-12-17T04:08:52.515Z,94.32
2018-12-17T04:09:52.847Z,94.71
2018-12-17T04:10:52.524Z,94.42
2018-12-17T04:11:52.530Z,94.39
2018-12-17T04:12:52.535Z,94.44
2018-12-17T04:13:52.582Z,94.4
2018-12-17T04:14:52.465Z,94.6
2018-12-17T04:15:52.769Z,94.75
2018-12-17T04:16:52.439Z,94.48
2018-12-17T04:17:52.482Z,94.35
2018-12-17T04:18:52.903Z,94.53
2018-12-17T04:19:52.564Z,94.66
2018-12-17T04:20:52.975Z,94.69
2018-12-17T04:21:53.006Z,94.66
2018-12-17T04:22:52.455Z,94.64
2018-12-17T04:23:52.646Z,94.77
2018-12-17T04:24:52.543Z,94.62
2018-12-17T04:25:52.912Z,94.77
2018-12-17T04:26:52.648Z,94.54
2018-12-17T04:27:52.487Z,94.74
2018-12-17T04:28:52.604Z,94.8
2018-12-17T04:29:52.475Z,94.85
2018-12-17T04:30:52.492Z,94.66
2018-12-17T04:31:52.671Z,94.71
2018-12-17T04:32:52.418Z,94.7
2018-12-17T04:33:52.631Z,94.58
2018-12-17T04:34:52.602Z,94.54
2018-12-17T04:35:53.289Z,94.5
2018-12-17T04:36:52.474Z,94.6
2018-12-17T04:37:52.555Z,94.69
2018-12-17T04:38:52.673Z,94.47
2018-12-17T04:39:52.650Z,94.37
2018-12-17T04:40:52.528Z,94.72
2018-12-17T04:41:52.471Z,94.53
2018-12-17T04:42:52.436Z,94.64
2018-12-17T04:43:52.500Z,94.64
2018-12-17T04:44:52.432Z,94.63
2018-12-17T04:45:52.617Z,94.75
2018-12-17T04:46:52.483Z,94.77
2018-12-17T04:47:52.455Z,94.61
2018-12-17T04:48:52.559Z,95.05
2018-12-17T04:49:52.412Z,94.75
2018-12-17T04:50:52.421Z,94.77
2018-12-17T04:51:52.400Z,94.72
2018-12-17T04:52:52.400Z,94.46
2018-12-17T04:53:52.448Z,94.49
2018-12-17T04:54:52.413Z,94.57
2018-12-17T04:55:52.463Z,94.48
2018-12-17T04:56:52.421Z,94.39
2018-12-17T04:57:52.697Z,94.51
2018-12-17T04:58:52.704Z,94.66
2018-12-17T04:59:52.383Z,94.67
2018-12-17T05:00:52.398Z,94.47
2018-12-17T05:01:52.461Z,94.63
2018-12-17T05:02:52.448Z,94.7
2018-12-17T05:03:52.372Z,94.52
2018-12-17T05:04:52.370Z,94.66
2018-12-17T05:05:52.377Z,94.52
2018-12-17T05:06:52.414Z,94.51
2018-12-17T05:07:52.353Z,94.53
2018-12-17T05:08:52.389Z,94.42
2018-12-17T05:09:52.476Z,94.49
2018-12-17T05:10:52.380Z,94.34
2018-12-17T05:11:52.527Z,94.8
2018-12-17T05:12:52.502Z,94.62
2018-12-17T05:13:52.358Z,94.53
2018-12-17T05:14:52.399Z,94.54
2018-12-17T05:15:52.563Z,94.61
2018-12-17T05:16:52.629Z,94.5
2018-12-17T05:17:52.352Z,94.61
2018-12-17T05:18:52.436Z,94.86
2018-12-17T05:19:52.550Z,94.62
2018-12-17T05:20:52.437Z,94.92
2018-12-17T05:21:52.474Z,94.78
2018-12-17T05:22:52.560Z,94.9
2018-12-17T05:23:52.698Z,94.57
2018-12-17T05:24:52.649Z,94.59
2018-12-17T05:25:52.419Z,94.54
2018-12-17T05:26:52.801Z,94.45
2018-12-17T05:27:52.593Z,94.42
2018-12-17T05:28:52.413Z,94.42
2018-12-17T05:29:52.388Z,94.44
2018-12-17T05:30:52.453Z,94.84
2018-12-17T05:31:52.547Z,94.95
2018-12-17T05:32:52.451Z,94.84
2018-12-17T05:33:53.170Z,94.94
2018-12-17T05:34:52.381Z,94.83
2018-12-17T05:35:52.458Z,95.1
2018-12-17T05:36:52.631Z,94.97
2018-12-17T05:37:52.507Z,94.78
2018-12-17T05:38:53.170Z,94.8
2018-12-17T05:39:52.346Z,94.72
2018-12-17T05:40:52.623Z,94.55
2018-12-17T05:41:52.465Z,95.03
2018-12-17T05:42:52.370Z,94.83
2018-12-17T05:43:52.698Z,95.1
2018-12-17T05:44:52.317Z,94.76
2018-12-17T05:45:52.358Z,95.19
2018-12-17T05:46:52.350Z,94.78
2018-12-17T05:47:52.381Z,94.75
2018-12-17T05:48:52.324Z,94.63
2018-12-17T05:49:52.554Z,94.68
2018-12-17T05:50:52.441Z,94.6
2018-12-17T05:51:52.728Z,94.59
2018-12-17T05:52:52.555Z,94.52
2018-12-17T05:53:52.307Z,94.36
2018-12-17T05:54:52.539Z,94.78
2018-12-17T05:55:52.336Z,94.9
2018-12-17T05:56:52.364Z,94.79
2018-12-17T05:57:52.420Z,94.76
2018-12-17T05:58:52.361Z,94.89
2018-12-17T05:59:52.430Z,94.81
2018-12-17T06:00:52.422Z,94.87
2018-12-17T06:01:52.457Z,94.78
2018-12-17T06:02:52.388Z,94.48
2018-12-17T06:03:52.325Z,94.64
2018-12-17T06:04:52.336Z,94.83
2018-12-17T06:05:52.390Z,94.58
2018-12-17T06:06:52.522Z,94.62
2018-12-17T06:07:52.590Z,94.53
2018-12-17T06:08:52.412Z,94.52
2018-12-17T06:09:52.287Z,94.59
2018-12-17T06:10:52.336Z,94.51
2018-12-17T06:11:52.325Z,94.36
2018-12-17T06:12:52.725Z,94.54
2018-12-17T06:13:52.330Z,94.53
2018-12-17T06:14:52.557Z,94.47
2018-12-17T06:15:52.292Z,94.41
2018-12-17T06:16:52.343Z,94.38
2018-12-17T06:17:52.429Z,94.33
2018-12-17T06:18:52.535Z,94.51
2018-12-17T06:19:52.307Z,94.52
2018-12-17T06:20:52.467Z,94.38
2018-12-17T06:21:52.458Z,94.42
2018-12-17T06:22:52.414Z,94.43
2018-12-17T06:23:52.706Z,94.3
2018-12-17T06:24:52.622Z,94.14
2018-12-17T06:25:52.542Z,94.32
2018-12-17T06:26:52.405Z,94.43
2018-12-17T06:27:52.309Z,94.23
2018-12-17T06:28:52.378Z,94.53
2018-12-17T06:29:52.414Z,94.43
2018-12-17T06:30:52.299Z,94.46
2018-12-17T06:31:52.404Z,94.51
2018-12-17T06:32:52.303Z,94.17
2018-12-17T06:33:52.271Z,94.49
2018-12-17T06:34:52.270Z,94.6
2018-12-17T06:35:52.347Z,94.62
2018-12-17T06:36:52.461Z,94.67
2018-12-17T06:37:52.284Z,94.79
2018-12-17T06:38:52.280Z,94.35
2018-12-17T06:39:52.506Z,94.47
2018-12-17T06:40:52.254Z,94.57
2018-12-17T06:41:52.268Z,94.63
2018-12-17T06:42:52.380Z,94.71
2018-12-17T06:43:52.342Z,94.51
2018-12-17T06:44:52.245Z,94.62
2018-12-17T06:45:52.252Z,94.39
2018-12-17T06:46:52.253Z,94.42
2018-12-17T06:47:52.263Z,94.75
2018-12-17T06:48:52.277Z,94.89
2018-12-17T06:49:52.466Z,94.56
2018-12-17T06:50:52.504Z,94.54
2018-12-17T06:51:52.286Z,94.72
2018-12-17T06:52:52.398Z,94.61
2018-12-17T06:53:52.439Z,94.63
2018-12-17T06:54:54.847Z,94.7
2018-12-17T06:55:52.328Z,94.58
2018-12-17T06:56:52.280Z,94.79
2018-12-17T06:57:52.408Z,94.74
2018-12-17T06:58:52.246Z,94.9
2018-12-17T06:59:52.505Z,94.52
2018-12-17T07:00:52.447Z,94.62
2018-12-17T07:01:52.574Z,94.71
2018-12-17T07:02:52.352Z,94.67
2018-12-17T07:03:52.205Z,94.56
2018-12-17T07:04:52.340Z,94.39
2018-12-17T07:05:52.281Z,94.61
2018-12-17T07:06:52.347Z,94.52
2018-12-17T07:07:52.464Z,94.52
2018-12-17T07:08:52.577Z,94.81
2018-12-17T07:09:52.197Z,94.53
2018-12-17T07:10:52.209Z,94.51
2018-12-17T07:11:52.231Z,94.51
2018-12-17T07:12:52.236Z,94.7
2018-12-17T07:13:52.438Z,94.56
2018-12-17T07:14:52.183Z,94.77
2018-12-17T07:15:52.188Z,94.37
2018-12-17T07:16:52.320Z,94.56
2018-12-17T07:17:52.240Z,94.54
2018-12-17T07:18:52.281Z,94.65
2018-12-17T07:19:52.209Z,94.42
2018-12-17T07:20:52.342Z,94.51
2018-12-17T07:21:52.594Z,94.55
2018-12-17T07:22:52.358Z,94.43
2018-12-17T07:23:52.243Z,94.54
2018-12-17T07:24:53.044Z,94.52
2018-12-17T07:25:52.545Z,94.69
2018-12-17T07:26:52.286Z,94.55
2018-12-17T07:27:52.363Z,94.55
2018-12-17T07:28:52.298Z,94.53
2018-12-17T07:29:52.209Z,94.72
2018-12-17T07:30:52.187Z,94.55
2018-12-17T07:31:52.291Z,94.82
2018-12-17T07:32:52.380Z,94.88
2018-12-17T07:33:52.209Z,94.55
2018-12-17T07:34:52.217Z,94.79
2018-12-17T07:35:52.909Z,94.97
2018-12-17T07:36:52.197Z,94.9
2018-12-17T07:37:52.467Z,94.61
2018-12-17T07:38:52.204Z,94.68
2018-12-17T07:39:52.144Z,94.74
2018-12-17T07:40:52.254Z,94.95
2018-12-17T07:41:52.186Z,94.85
2018-12-17T07:42:52.337Z,94.76
2018-12-17T07:43:52.258Z,94.77
2018-12-17T07:44:53.028Z,95.1
2018-12-17T07:45:52.225Z,95.13
2018-12-17T07:46:52.218Z,95.24
2018-12-17T07:47:52.189Z,95.44
2018-12-17T07:48:52.233Z,95.31
2018-12-17T07:49:52.457Z,95.25
2018-12-17T07:50:52.261Z,95.23
2018-12-17T07:51:52.283Z,95.47
2018-12-17T07:52:52.296Z,95.28
2018-12-17T07:53:52.513Z,95.54
2018-12-17T07:54:52.326Z,95.49
2018-12-17T07:55:52.389Z,95.49
2018-12-17T07:56:52.295Z,95.41
2018-12-17T07:57:52.912Z,95.46
2018-12-17T07:58:52.332Z,95.83
2018-12-17T07:59:56.596Z,96.11
2018-12-17T08:00:52.185Z,95.9
2018-12-17T08:01:52.501Z,95.53
2018-12-17T08:02:52.284Z,95.6
2018-12-17T08:03:52.186Z,95.71
2018-12-17T08:04:52.288Z,95.53
2018-12-17T08:05:52.230Z,95.73
2018-12-17T08:06:52.125Z,95.73
2018-12-17T08:07:52.160Z,95.75
2018-12-17T08:08:52.235Z,95.61
2018-12-17T08:09:52.307Z,95.64
2018-12-17T08:10:52.595Z,95.78
2018-12-17T08:11:52.288Z,95.66
2018-12-17T08:12:52.121Z,95.67
2018-12-17T08:13:52.186Z,95.74
2018-12-17T08:14:52.146Z,95.69
2018-12-17T08:15:52.143Z,95.9
2018-12-17T08:16:52.346Z,95.85
2018-12-17T08:17:52.194Z,95.72
2018-12-17T08:18:52.134Z,95.52
2018-12-17T08:19:52.195Z,95.53
2018-12-17T08:20:52.175Z,95.63
2018-12-17T08:21:52.139Z,95.58
2018-12-17T08:22:52.159Z,95.69
2018-12-17T08:23:52.259Z,95.91
2018-12-17T08:24:52.112Z,95.74
2018-12-17T08:25:52.103Z,96.26
2018-12-17T08:26:52.340Z,95.92
2018-12-17T08:27:52.507Z,96.07
2018-12-17T08:28:52.225Z,95.96
2018-12-17T08:29:52.147Z,96.08
2018-12-17T08:30:52.483Z,95.91
2018-12-17T08:31:52.118Z,96.22
2018-12-17T08:32:52.225Z,96.55
2018-12-17T08:33:52.329Z,96.41
2018-12-17T08:34:52.084Z,96.42
2018-12-17T08:35:52.137Z,96.35
2018-12-17T08:36:52.722Z,96.25
2018-12-17T08:37:52.331Z,96.21
2018-12-17T08:38:52.347Z,96.19
2018-12-17T08:39:52.491Z,96.54
2018-12-17T08:40:52.932Z,96.54
2018-12-17T08:41:52.329Z,96.56
2018-12-17T08:42:52.519Z,96.59
2018-12-17T08:43:52.205Z,96.44
2018-12-17T08:44:52.150Z,96.49
2018-12-17T08:45:52.076Z,96.38
2018-12-17T08:46:52.264Z,96.32
2018-12-17T08:47:52.284Z,96.38
2018-12-17T08:48:52.268Z,96.24
2018-12-17T08:49:52.313Z,96.33
2018-12-17T08:50:52.102Z,96.32
2018-12-17T08:51:52.096Z,96.48
2018-12-17T08:52:52.195Z,96.47
2018-12-17T08:53:53.081Z,96.47
2018-12-17T08:54:52.238Z,96.33
2018-12-17T08:55:52.238Z,96.28
2018-12-17T08:56:52.224Z,96.24
2018-12-17T08:57:52.166Z,96.21
2018-12-17T08:58:52.133Z,96.42
2018-12-17T08:59:52.260Z,96.47
2018-12-17T09:00:52.135Z,96.23
2018-12-17T09:01:52.069Z,96.2
2018-12-17T09:02:52.192Z,96.19
2018-12-17T09:03:52.210Z,96.14
2018-12-17T09:04:52.246Z,96.09
2018-12-17T09:05:52.320Z,95.81
2018-12-17T09:06:52.258Z,95.77
2018-12-17T09:07:52.092Z,96.01
2018-12-17T09:08:52.205Z,95.94
2018-12-17T09:09:52.076Z,96.1
2018-12-17T09:10:52.219Z,95.78
2018-12-17T09:11:52.333Z,95.73
2018-12-17T09:12:52.316Z,95.89
2018-12-17T09:13:52.149Z,96.13
2018-12-17T09:14:52.285Z,95.93
2018-12-17T09:15:52.127Z,96.08
2018-12-17T09:16:52.126Z,96.1
2018-12-17T09:17:52.041Z,95.96
2018-12-17T09:18:52.185Z,95.95
2018-12-17T09:19:52.861Z,96.02
2018-12-17T09:20:52.026Z,95.9
2018-12-17T09:21:52.215Z,95.76
2018-12-17T09:22:52.045Z,95.77
2018-12-17T09:23:52.228Z,95.89
2018-12-17T09:24:52.418Z,95.92
2018-12-17T09:25:52.031Z,96.17
2018-12-17T09:26:52.067Z,96.34
2018-12-17T09:27:52.212Z,96.13
2018-12-17T09:28:52.469Z,96.04
2018-12-17T09:29:52.192Z,95.97
2018-12-17T09:30:52.351Z,96.48
2018-12-17T09:31:52.311Z,96.48
2018-12-17T09:32:52.030Z,96.3
2018-12-17T09:33:52.395Z,96.38
2018-12-17T09:34:52.188Z,96.31
2018-12-17T09:35:54.430Z,96.3
2018-12-17T09:36:52.229Z,96.25
2018-12-17T09:37:52.355Z,96.46
2018-12-17T09:38:52.118Z,96.48
2018-12-17T09:39:52.687Z,96.35
2018-12-17T09:40:52.322Z,96.19
2018-12-17T09:41:52.044Z,96.24
2018-12-17T09:42:52.707Z,96.19
2018-12-17T09:43:52.133Z,96.11
2018-12-17T09:44:52.111Z,96.13
2018-12-17T09:45:52.185Z,96.2
2018-12-17T09:46:52.090Z,96.19
2018-12-17T09:47:52.015Z,96.18
2018-12-17T09:48:52.053Z,95.98
2018-12-17T09:49:52.165Z,96.11
2018-12-17T09:50:52.033Z,96.25
2018-12-17T09:51:52.041Z,96.17
2018-12-17T09:52:51.975Z,96.24
2018-12-17T09:53:52.544Z,96.06
2018-12-17T09:54:52.027Z,95.94
2018-12-17T09:55:52.093Z,96.1
2018-12-17T09:56:52.021Z,96.2
2018-12-17T09:57:52.060Z,96.11
2018-12-17T09:58:52.409Z,96.02
2018-12-17T09:59:52.127Z,96.1
2018-12-17T10:00:52.549Z,95.94
2018-12-17T10:01:52.061Z,96.11
2018-12-17T10:02:51.996Z,95.89
2018-12-17T10:03:52.007Z,96
2018-12-17T10:04:52.044Z,96.27
2018-12-17T10:05:52.090Z,96.27
2018-12-17T10:06:51.994Z,96.25
2018-12-17T10:07:52.105Z,96.28
2018-12-17T10:08:52.118Z,96.2
2018-12-17T10:09:52.082Z,96.25
2018-12-17T10:10:52.082Z,96.63
2018-12-17T10:11:52.629Z,96.33
2018-12-17T10:12:52.126Z,96.25
2018-12-17T10:13:52.051Z,96.4
2018-12-17T10:14:52.073Z,96.2
2018-12-17T10:15:51.960Z,96.19
2018-12-17T10:16:52.572Z,96.14
2018-12-17T10:17:52.033Z,96.19
2018-12-17T10:18:52.575Z,96.2
2018-12-17T10:19:52.055Z,96.13
2018-12-17T10:20:52.804Z,96.08
2018-12-17T10:21:52.189Z,96.34
2018-12-17T10:22:51.987Z,96.2
2018-12-17T10:23:52.070Z,96.15
2018-12-17T10:24:52.064Z,96.3
2018-12-17T10:25:52.194Z,96.28
2018-12-17T10:26:52.224Z,96.28
2018-12-17T10:27:52.145Z,96.65
2018-12-17T10:28:52.054Z,96.41
2018-12-17T10:29:52.095Z,96.31
2018-12-17T10:30:52.151Z,96.19
2018-12-17T10:31:52.160Z,96.28
2018-12-17T10:32:52.253Z,96.18
2018-12-17T10:33:51.941Z,96.07
2018-12-17T10:34:52.107Z,96.15
2018-12-17T10:35:52.141Z,96.06
2018-12-17T10:36:51.939Z,96
2018-12-17T10:37:52.012Z,95.96
2018-12-17T10:38:52.308Z,95.98
2018-12-17T10:39:52.121Z,96.12
2018-12-17T10:40:52.237Z,96.11
2018-12-17T10:41:52.209Z,96.16
2018-12-17T10:42:52.234Z,96.08
2018-12-17T10:43:52.046Z,96.11
2018-12-17T10:44:52.130Z,96.08
2018-12-17T10:45:52.102Z,95.91
2018-12-17T10:46:52.173Z,95.92
2018-12-17T10:47:52.241Z,95.82
2018-12-17T10:48:52.037Z,95.81
2018-12-17T10:49:51.947Z,95.8
2018-12-17T10:50:52.163Z,95.87
2018-12-17T10:51:52.085Z,95.87
2018-12-17T10:52:52.458Z,95.88
2018-12-17T10:53:52.024Z,96.06
2018-12-17T10:54:52.114Z,96.12
2018-12-17T10:55:51.991Z,96.08
2018-12-17T10:56:51.948Z,96.23
2018-12-17T10:57:52.259Z,96.16
2018-12-17T10:58:52.112Z,95.94
2018-12-17T10:59:51.969Z,96.02
2018-12-17T11:00:52.095Z,95.95
2018-12-17T11:01:52.039Z,95.92
2018-12-17T11:02:52.113Z,95.85
2018-12-17T11:03:52.183Z,95.89
2018-12-17T11:04:51.917Z,95.95
2018-12-17T11:05:52.168Z,95.99
2018-12-17T11:06:52.084Z,96.01
2018-12-17T11:07:52.247Z,95.99
2018-12-17T11:08:52.075Z,96.03
2018-12-17T11:09:52.184Z,96.02
2018-12-17T11:10:51.965Z,95.84
2018-12-17T11:11:51.975Z,95.79
2018-12-17T11:12:52.317Z,95.89
2018-12-17T11:13:52.415Z,95.91
2018-12-17T11:14:52.766Z,95.75
2018-12-17T11:15:52.336Z,95.75
2018-12-17T11:16:51.930Z,95.98
2018-12-17T11:17:52.056Z,95.91
2018-12-17T11:18:51.898Z,95.84
2018-12-17T11:19:51.969Z,96.15
2018-12-17T11:20:52.182Z,95.96
2018-12-17T11:21:52.184Z,95.86
2018-12-17T11:22:52.053Z,95.88
2018-12-17T11:23:52.007Z,95.93
2018-12-17T11:24:52.206Z,95.9
2018-12-17T11:25:52.512Z,96.07
2018-12-17T11:26:52.018Z,96.15
2018-12-17T11:27:52.226Z,96.06
2018-12-17T11:28:51.887Z,95.98
2018-12-17T11:29:52.175Z,95.94
2018-12-17T11:30:52.132Z,95.79
2018-12-17T11:31:52.147Z,95.84
2018-12-17T11:32:52.053Z,95.69
2018-12-17T11:33:52.041Z,95.79
2018-12-17T11:34:52.053Z,95.84
2018-12-17T11:35:52.699Z,95.74
2018-12-17T11:36:52.241Z,95.81
2018-12-17T11:37:52.044Z,95.8
2018-12-17T11:38:51.901Z,95.84
2018-12-17T11:39:52.498Z,95.72
2018-12-17T11:40:51.968Z,95.65
2018-12-17T11:41:52.503Z,95.61
2018-12-17T11:42:52.006Z,95.97
2018-12-17T11:43:52.162Z,96.01
2018-12-17T11:44:51.859Z,95.88
2018-12-17T11:45:51.953Z,96.09
2018-12-17T11:46:52.131Z,96.16
2018-12-17T11:47:52.121Z,96.01
2018-12-17T11:48:51.821Z,96
2018-12-17T11:49:51.951Z,95.92
2018-12-17T11:50:52.034Z,95.69
2018-12-17T11:51:52.011Z,95.75
2018-12-17T11:52:52.047Z,96.38
2018-12-17T11:53:52.173Z,95.73
2018-12-17T11:54:51.861Z,95.66
2018-12-17T11:55:52.665Z,95.5
2018-12-17T11:56:52.135Z,95.71
2018-12-17T11:57:51.878Z,95.64
2018-12-17T11:58:52.249Z,95.52
2018-12-17T11:59:51.812Z,95.56
2018-12-17T12:00:53.830Z,95.72
2018-12-17T12:01:51.932Z,95.64
2018-12-17T12:02:58.897Z,95.31
2018-12-17T12:03:51.949Z,95.73
2018-12-17T12:04:52.135Z,95.39
2018-12-17T12:05:52.023Z,95.35
2018-12-17T12:06:51.925Z,94.99
2018-12-17T12:07:52.198Z,95.01
2018-12-17T12:08:51.850Z,95.03
2018-12-17T12:09:51.942Z,95.32
2018-12-17T12:10:51.942Z,94.99
2018-12-17T12:11:51.996Z,94.78
2018-12-17T12:12:51.884Z,94.88
2018-12-17T12:13:51.890Z,94.78
2018-12-17T12:14:51.950Z,94.71
2018-12-17T12:15:52.059Z,94.8
2018-12-17T12:16:52.218Z,95
2018-12-17T12:17:52.075Z,95.12
2018-12-17T12:18:51.977Z,95.12
2018-12-17T12:19:52.140Z,95.33
2018-12-17T12:20:52.171Z,95.17
2018-12-17T12:21:52.244Z,95.42
2018-12-17T12:22:52.500Z,95.25
2018-12-17T12:23:52.217Z,95.37
2018-12-17T12:24:51.969Z,94.91
2018-12-17T12:25:51.837Z,94.88
2018-12-17T12:26:52.035Z,94.86
2018-12-17T12:27:51.803Z,95.17
2018-12-17T12:28:51.814Z,94.96
2018-12-17T12:29:51.822Z,94.85
2018-12-17T12:30:52.272Z,94.89
2018-12-17T12:31:51.862Z,95
2018-12-17T12:32:51.814Z,94.96
2018-12-17T12:33:51.898Z,94.87
2018-12-17T12:34:51.882Z,94.92
2018-12-17T12:35:52.046Z,95.18
2018-12-17T12:36:52.000Z,95.75
2018-12-17T12:37:51.745Z,95.32
2018-12-17T12:38:51.879Z,95.46
2018-12-17T12:39:52.065Z,95.87
2018-12-17T12:40:51.907Z,95.45
2018-12-17T12:41:51.933Z,95.3
2018-12-17T12:42:52.118Z,95.47
2018-12-17T12:43:52.150Z,95.9
2018-12-17T12:44:51.770Z,95.4
2018-12-17T12:45:51.902Z,95.54
2018-12-17T12:46:51.815Z,95.6
2018-12-17T12:47:51.904Z,95.49
2018-12-17T12:48:52.002Z,95.63
2018-12-17T12:49:52.378Z,95.66
2018-12-17T12:50:51.830Z,95.34
2018-12-17T12:51:52.708Z,95.5
2018-12-17T12:52:52.167Z,95.29
2018-12-17T12:53:52.009Z,95.34
2018-12-17T12:54:52.010Z,95.63
2018-12-17T12:55:52.241Z,95.9